createdAt,value
2019-02-27T00:01:17.583Z,5.34
2019-02-27T00:03:43.853Z,5.25
2019-02-27T00:06:09.861Z,5.15
2019-02-27T00:08:36.056Z,5.22
2019-02-27T00:11:02.375Z,5.25
2019-02-27T00:13:28.538Z,5.32
2019-02-27T00:15:54.911Z,5.42
2019-02-27T00:18:23.783Z,5.39
2019-02-27T00:20:48.924Z,5.38
2019-02-27T00:23:14.962Z,5.31
2019-02-27T00:25:41.016Z,5.45
2019-02-27T00:28:07.065Z,5.51
2019-02-27T00:30:33.207Z,5.61
2019-02-27T00:32:59.270Z,5.47
2019-02-27T00:35:25.339Z,5.28
2019-02-27T00:37:52.618Z,5.33
2019-02-27T00:40:18.862Z,5.43
2019-02-27T00:42:44.908Z,5.59
2019-02-27T00:45:10.926Z,5.53
2019-02-27T00:47:37.115Z,5.46
2019-02-27T00:50:06.550Z,5.52
2019-02-27T00:52:32.895Z,5.62
2019-02-27T00:54:58.951Z,5.67
2019-02-27T00:57:24.962Z,5.66
2019-02-27T00:59:51.009Z,5.42
2019-02-27T01:02:19.952Z,5.35
2019-02-27T01:04:45.057Z,5.36
2019-02-27T01:07:11.715Z,5.34
2019-02-27T01:09:39.548Z,5.31
2019-02-27T01:12:05.712Z,5.34
2019-02-27T01:14:31.836Z,5.36
2019-02-27T01:16:57.958Z,5.21
2019-02-27T01:19:23.989Z,5.16
2019-02-27T01:21:50.066Z,5.10
2019-02-27T01:24:17.412Z,4.92
2019-02-27T01:26:44.082Z,4.95
2019-02-27T01:29:10.234Z,4.83
2019-02-27T01:31:36.254Z,4.95
2019-02-27T01:34:02.367Z,4.82
2019-02-27T01:36:28.390Z,4.71
2019-02-27T01:38:54.527Z,4.63
2019-02-27T01:41:24.350Z,4.61
2019-02-27T01:43:48.503Z,4.56
2019-02-27T01:46:14.578Z,4.48
2019-02-27T01:49:00.490Z,4.47
2019-02-27T01:51:28.183Z,4.36
2019-02-27T01:53:54.515Z,4.36
2019-02-27T01:56:20.662Z,4.34
2019-02-27T01:58:46.817Z,4.37
2019-02-27T02:01:20.878Z,4.39
2019-02-27T02:03:47.609Z,4.18
2019-02-27T02:06:14.267Z,4.14
2019-02-27T02:08:40.357Z,4.08
2019-02-27T02:11:06.697Z,4.07
2019-02-27T02:13:48.807Z,4.23
2019-02-27T02:16:21.650Z,4.16
2019-02-27T02:19:24.945Z,3.98
2019-02-27T02:21:57.723Z,4.04
2019-02-27T02:24:46.887Z,3.91
2019-02-27T02:27:24.235Z,3.93
2019-02-27T02:30:30.006Z,3.82
2019-02-27T02:33:12.571Z,3.77
2019-02-27T02:35:50.693Z,3.86
2019-02-27T02:38:55.223Z,3.70
2019-02-27T02:41:46.274Z,3.74
2019-02-27T02:44:30.385Z,3.73
2019-02-27T02:47:03.424Z,3.75
2019-02-27T02:49:42.512Z,3.72
2019-02-27T02:52:26.914Z,3.70
2019-02-27T02:55:13.823Z,3.73
2019-02-27T02:58:07.986Z,3.79
2019-02-27T03:00:43.021Z,3.78
2019-02-27T03:03:19.386Z,3.73
2019-02-27T03:06:09.331Z,3.62
2019-02-27T03:08:56.383Z,3.76
2019-02-27T03:11:35.110Z,3.73
2019-02-27T03:14:38.836Z,3.78
2019-02-27T03:17:17.902Z,3.87
2019-02-27T03:19:46.358Z,3.93
2019-02-27T03:22:32.390Z,3.83
2019-02-27T03:25:04.219Z,3.55
2019-02-27T03:27:46.588Z,3.57
2019-02-27T03:30:36.868Z,3.62
2019-02-27T03:33:23.200Z,3.76
2019-02-27T03:36:03.339Z,3.67
2019-02-27T03:39:00.239Z,3.68
2019-02-27T03:41:36.977Z,3.45
2019-02-27T03:44:20.735Z,3.42
2019-02-27T03:46:54.961Z,3.36
2019-02-27T03:49:30.700Z,3.59
2019-02-27T03:52:18.326Z,3.53
2019-02-27T03:54:58.032Z,3.47
2019-02-27T03:57:39.513Z,3.48
2019-02-27T04:00:18.068Z,3.47
2019-02-27T04:02:56.631Z,3.39
2019-02-27T04:05:46.257Z,3.48
2019-02-27T04:08:32.969Z,3.58
2019-02-27T04:10:59.161Z,3.50
2019-02-27T04:13:27.765Z,3.52
2019-02-27T04:15:54.387Z,3.69
2019-02-27T04:18:20.653Z,3.61
2019-02-27T04:20:50.161Z,3.55
2019-02-27T04:23:14.916Z,3.49
2019-02-27T04:25:41.389Z,3.35
2019-02-27T04:28:07.509Z,3.38
2019-02-27T04:30:33.869Z,3.28
2019-02-27T04:32:59.887Z,3.24
2019-02-27T04:35:26.575Z,3.28
2019-02-27T04:37:54.410Z,3.31
2019-02-27T04:40:21.014Z,3.12
2019-02-27T04:42:49.090Z,3.15
2019-02-27T04:45:15.112Z,3.11
2019-02-27T04:47:41.134Z,3.10
2019-02-27T04:50:10.905Z,3.10
2019-02-27T04:52:35.514Z,3.04
2019-02-27T04:55:01.551Z,2.95
2019-02-27T04:57:28.102Z,3.04
2019-02-27T04:59:54.332Z,2.94
2019-02-27T05:02:20.449Z,2.93
2019-02-27T05:04:46.870Z,2.94
2019-02-27T05:07:12.900Z,2.97
2019-02-27T05:09:38.945Z,2.95
2019-02-27T05:12:05.076Z,3.00
2019-02-27T05:14:31.226Z,2.86
2019-02-27T05:16:57.404Z,2.72
2019-02-27T05:19:25.288Z,2.84
2019-02-27T05:21:52.449Z,2.85
2019-02-27T05:24:19.280Z,2.87
2019-02-27T05:26:45.354Z,2.89
2019-02-27T05:29:11.415Z,2.84
2019-02-27T05:31:40.730Z,2.84
2019-02-27T05:34:06.929Z,2.79
2019-02-27T05:36:33.895Z,2.84
2019-02-27T05:39:00.115Z,2.83
2019-02-27T05:41:26.215Z,2.89
2019-02-27T05:43:54.458Z,3.12
2019-02-27T05:46:20.551Z,3.10
2019-02-27T05:48:46.571Z,2.85
2019-02-27T05:51:12.633Z,2.89
2019-02-27T05:53:38.713Z,2.87
2019-02-27T05:56:04.810Z,2.97
2019-02-27T05:58:31.244Z,2.89
2019-02-27T06:00:57.741Z,2.68
2019-02-27T06:03:41.545Z,2.80
2019-02-27T06:06:11.488Z,2.85
2019-02-27T06:08:38.068Z,2.85
2019-02-27T06:11:03.997Z,2.82
2019-02-27T06:13:30.122Z,2.91
2019-02-27T06:15:56.211Z,3.02
2019-02-27T06:18:23.657Z,2.75
2019-02-27T06:20:51.807Z,2.62
2019-02-27T06:23:18.048Z,2.65
2019-02-27T06:25:44.182Z,2.68
2019-02-27T06:28:23.601Z,2.66
2019-02-27T06:30:49.681Z,2.65
2019-02-27T06:33:17.827Z,2.73
2019-02-27T06:35:43.928Z,2.71
2019-02-27T06:38:10.263Z,2.83
2019-02-27T06:40:36.761Z,2.79
2019-02-27T06:43:03.018Z,2.81
2019-02-27T06:45:29.364Z,2.99
2019-02-27T06:47:55.417Z,2.81
2019-02-27T06:50:25.274Z,2.93
2019-02-27T06:52:49.613Z,3.03
2019-02-27T06:55:15.800Z,3.10
2019-02-27T06:57:42.353Z,3.10
2019-02-27T07:00:19.812Z,3.27
2019-02-27T07:02:46.063Z,3.35
2019-02-27T07:05:13.599Z,3.53
2019-02-27T07:07:40.472Z,3.56
2019-02-27T07:10:09.675Z,3.48
2019-02-27T07:12:35.810Z,3.49
2019-02-27T07:15:02.628Z,3.58
2019-02-27T07:17:29.230Z,3.63
2019-02-27T07:19:59.084Z,3.82
2019-02-27T07:22:29.330Z,3.74
2019-02-27T07:24:53.149Z,3.90
2019-02-27T07:27:19.584Z,4.14
2019-02-27T07:29:45.714Z,4.77
2019-02-27T07:32:11.829Z,5.17
2019-02-27T07:34:38.416Z,5.43
2019-02-27T07:37:04.662Z,5.68
2019-02-27T07:39:32.856Z,5.67
2019-02-27T07:41:59.294Z,5.81
2019-02-27T07:44:25.480Z,5.85
2019-02-27T07:46:51.691Z,5.91
2019-02-27T07:49:17.754Z,6.08
2019-02-27T07:51:44.772Z,6.04
2019-02-27T07:54:10.904Z,6.19
2019-02-27T07:56:36.932Z,6.41
2019-02-27T07:59:03.068Z,6.34
2019-02-27T08:01:29.168Z,6.46
2019-02-27T08:03:55.320Z,6.49
2019-02-27T08:06:23.469Z,6.54
2019-02-27T08:08:49.303Z,6.56
2019-02-27T08:11:15.373Z,6.73
2019-02-27T08:13:41.515Z,6.81
2019-02-27T08:16:07.586Z,6.78
2019-02-27T08:18:36.601Z,6.94
2019-02-27T08:21:01.584Z,7.07
2019-02-27T08:23:27.760Z,7.34
2019-02-27T08:25:53.808Z,7.43
2019-02-27T08:28:20.977Z,7.38
2019-02-27T08:30:47.083Z,7.53
2019-02-27T08:33:15.140Z,7.63
2019-02-27T08:35:41.084Z,7.84
2019-02-27T08:38:07.207Z,7.94
2019-02-27T08:40:33.350Z,8.12
2019-02-27T08:42:59.355Z,8.31
2019-02-27T08:45:27.128Z,8.45
2019-02-27T08:47:54.162Z,8.66
2019-02-27T08:50:22.757Z,8.80
2019-02-27T08:52:51.530Z,8.95
2019-02-27T08:55:20.026Z,9.14
2019-02-27T08:57:45.947Z,9.36
2019-02-27T09:00:17.168Z,9.57
2019-02-27T09:02:43.388Z,9.95
2019-02-27T09:05:09.560Z,10.10
2019-02-27T09:07:36.475Z,10.55
2019-02-27T09:10:09.345Z,10.87
2019-02-27T09:12:35.434Z,11.36
2019-02-27T09:15:01.751Z,11.92
2019-02-27T09:17:27.926Z,12.41
2019-02-27T09:19:54.290Z,13.27
2019-02-27T09:22:20.413Z,13.71
2019-02-27T09:24:46.602Z,14.38
2019-02-27T09:27:12.743Z,15.42
2019-02-27T09:29:38.857Z,16.18
2019-02-27T09:32:05.026Z,16.49
2019-02-27T09:34:31.163Z,16.90
2019-02-27T09:36:57.455Z,16.18
2019-02-27T09:39:23.611Z,17.60
2019-02-27T09:41:51.252Z,16.54
2019-02-27T09:44:17.526Z,17.31
2019-02-27T09:46:43.702Z,16.69
2019-02-27T09:49:09.851Z,17.26
2019-02-27T09:51:35.942Z,17.15
2019-02-27T09:54:02.000Z,18.32
2019-02-27T09:56:29.107Z,18.63
2019-02-27T09:58:55.892Z,18.50
2019-02-27T10:01:21.929Z,18.18
2019-02-27T10:03:48.045Z,17.87
2019-02-27T10:06:14.335Z,18.07
2019-02-27T10:08:40.501Z,18.05
2019-02-27T10:11:06.954Z,18.30
2019-02-27T10:13:35.538Z,18.18
2019-02-27T10:16:01.731Z,18.39
2019-02-27T10:18:29.213Z,19.13
2019-02-27T10:20:55.306Z,19.44
2019-02-27T10:23:21.978Z,19.13
2019-02-27T10:25:49.843Z,19.90
2019-02-27T10:28:16.077Z,20.53
2019-02-27T10:30:42.200Z,20.85
2019-02-27T10:33:11.194Z,21.38
2019-02-27T10:35:38.401Z,21.31
2019-02-27T10:38:04.872Z,21.03
2019-02-27T10:40:31.000Z,21.22
2019-02-27T10:42:57.178Z,20.93
2019-02-27T10:45:23.495Z,21.17
2019-02-27T10:47:49.997Z,21.75
2019-02-27T10:50:16.237Z,21.70
2019-02-27T10:52:42.533Z,22.28
2019-02-27T10:55:16.836Z,22.98
2019-02-27T10:57:42.995Z,23.01
2019-02-27T11:00:13.172Z,22.62
2019-02-27T11:02:39.542Z,22.83
2019-02-27T11:05:06.635Z,23.61
2019-02-27T11:07:32.734Z,23.03
2019-02-27T11:09:58.863Z,23.84
2019-02-27T11:12:26.904Z,23.71
2019-02-27T11:14:53.141Z,23.36
2019-02-27T11:17:20.342Z,23.15
2019-02-27T11:19:46.970Z,23.36
2019-02-27T11:22:13.203Z,22.38
2019-02-27T11:24:39.342Z,22.24
2019-02-27T11:27:06.081Z,22.26
2019-02-27T11:29:33.151Z,22.86
2019-02-27T11:32:00.713Z,22.23
2019-02-27T11:34:26.921Z,21.21
2019-02-27T11:36:53.351Z,21.29
2019-02-27T11:39:19.955Z,21.47
2019-02-27T11:41:48.373Z,21.54
2019-02-27T11:44:14.941Z,21.17
2019-02-27T11:46:41.235Z,21.09
2019-02-27T11:49:07.581Z,21.19
2019-02-27T11:51:33.910Z,20.88
2019-02-27T11:54:00.186Z,21.90
2019-02-27T11:56:26.418Z,21.59
2019-02-27T11:58:55.436Z,21.96
2019-02-27T12:01:22.121Z,22.35
2019-02-27T12:03:48.981Z,21.66
2019-02-27T12:06:15.311Z,22.21
2019-02-27T12:08:41.558Z,22.18
2019-02-27T12:11:09.711Z,21.50
2019-02-27T12:13:35.742Z,21.52
2019-02-27T12:16:02.174Z,21.42
2019-02-27T12:18:28.231Z,21.57
2019-02-27T12:20:54.598Z,21.14
2019-02-27T12:23:20.781Z,21.66
2019-02-27T12:25:47.311Z,21.89
2019-02-27T12:28:15.184Z,20.91
2019-02-27T12:30:41.408Z,20.75
2019-02-27T12:33:07.718Z,21.64
2019-02-27T12:35:34.973Z,21.38
2019-02-27T12:38:01.325Z,21.38
2019-02-27T12:40:27.639Z,21.08
2019-02-27T12:42:54.188Z,21.47
2019-02-27T12:45:26.841Z,21.17
2019-02-27T12:47:54.100Z,21.19
2019-02-27T12:50:21.457Z,21.16
2019-02-27T12:52:48.276Z,21.43
2019-02-27T12:55:15.665Z,20.66
2019-02-27T12:57:42.005Z,21.01
2019-02-27T13:00:11.803Z,20.93
2019-02-27T13:02:39.788Z,20.80
2019-02-27T13:05:10.270Z,20.94
2019-02-27T13:07:36.430Z,20.56
2019-02-27T13:10:24.484Z,19.71
2019-02-27T13:12:51.946Z,19.31
2019-02-27T13:15:25.759Z,18.76
2019-02-27T13:17:56.542Z,18.80
2019-02-27T13:20:29.041Z,18.78
2019-02-27T13:22:55.289Z,18.78
2019-02-27T13:25:23.837Z,18.51
2019-02-27T13:27:49.396Z,18.13
2019-02-27T13:30:18.908Z,17.87
2019-02-27T13:32:45.086Z,18.05
2019-02-27T13:35:12.374Z,18.06
2019-02-27T13:37:38.402Z,17.99
2019-02-27T13:40:11.453Z,17.94
2019-02-27T13:42:37.693Z,17.73
2019-02-27T13:45:12.626Z,17.49
2019-02-27T13:47:35.972Z,17.67
2019-02-27T13:50:04.062Z,17.69
2019-02-27T13:52:30.516Z,17.61
2019-02-27T13:54:56.605Z,17.73
2019-02-27T13:57:25.713Z,17.66
2019-02-27T13:59:51.047Z,17.88
2019-02-27T14:02:17.349Z,17.79
2019-02-27T14:04:43.634Z,17.66
2019-02-27T14:07:10.036Z,17.91
2019-02-27T14:09:41.507Z,17.96
2019-02-27T14:12:08.340Z,17.80
2019-02-27T14:14:35.792Z,17.76
2019-02-27T14:17:01.925Z,17.60
2019-02-27T14:19:28.425Z,17.69
2019-02-27T14:21:56.090Z,17.32
2019-02-27T14:24:22.693Z,17.51
2019-02-27T14:26:48.963Z,17.49
2019-02-27T14:29:15.116Z,17.17
2019-02-27T14:31:43.401Z,17.29
2019-02-27T14:34:09.256Z,17.02
2019-02-27T14:36:35.541Z,17.07
2019-02-27T14:39:04.167Z,17.07
2019-02-27T14:41:32.444Z,16.87
2019-02-27T14:43:58.644Z,16.71
2019-02-27T14:46:24.937Z,16.49
2019-02-27T14:48:52.423Z,16.31
2019-02-27T14:51:19.417Z,16.28
2019-02-27T14:53:45.442Z,16.35
2019-02-27T14:56:11.489Z,16.27
2019-02-27T14:58:38.109Z,16.13
2019-02-27T15:01:05.970Z,16.04
2019-02-27T15:03:31.995Z,15.98
2019-02-27T15:05:58.145Z,15.85
2019-02-27T15:08:25.214Z,15.86
2019-02-27T15:10:52.173Z,15.67
2019-02-27T15:13:18.285Z,15.67
2019-02-27T15:15:45.277Z,15.71
2019-02-27T15:18:11.501Z,15.60
2019-02-27T15:20:40.422Z,15.59
2019-02-27T15:23:05.633Z,15.61
2019-02-27T15:25:32.074Z,15.51
2019-02-27T15:27:59.923Z,15.54
2019-02-27T15:30:30.223Z,15.56
2019-02-27T15:32:56.451Z,15.57
2019-02-27T15:35:22.651Z,15.39
2019-02-27T15:37:49.276Z,15.44
2019-02-27T15:40:20.662Z,15.47
2019-02-27T15:42:46.856Z,15.48
2019-02-27T15:45:17.982Z,15.38
2019-02-27T15:47:44.690Z,15.37
2019-02-27T15:50:16.435Z,15.39
2019-02-27T15:52:42.749Z,15.29
2019-02-27T15:55:10.917Z,15.25
2019-02-27T15:57:37.115Z,15.34
2019-02-27T16:00:07.059Z,15.23
2019-02-27T16:02:34.056Z,15.19
2019-02-27T16:05:01.804Z,15.13
2019-02-27T16:07:27.999Z,14.96
2019-02-27T16:09:54.111Z,14.96
2019-02-27T16:12:20.125Z,14.98
2019-02-27T16:14:47.951Z,14.94
2019-02-27T16:17:14.313Z,14.96
2019-02-27T16:19:42.117Z,14.89
2019-02-27T16:22:08.431Z,14.83
2019-02-27T16:24:34.453Z,14.73
2019-02-27T16:27:01.387Z,14.69
2019-02-27T16:29:28.220Z,14.58
2019-02-27T16:31:54.654Z,14.67
2019-02-27T16:34:20.778Z,14.77
2019-02-27T16:36:47.059Z,14.62
2019-02-27T16:39:13.855Z,14.48
2019-02-27T16:41:40.006Z,14.30
2019-02-27T16:44:06.292Z,14.26
2019-02-27T16:46:32.512Z,14.25
2019-02-27T16:48:58.617Z,14.12
2019-02-27T16:51:26.896Z,14.22
2019-02-27T16:53:53.226Z,14.06
2019-02-27T16:56:19.423Z,13.93
2019-02-27T16:58:45.457Z,13.95
2019-02-27T17:01:11.580Z,13.90
2019-02-27T17:03:38.160Z,13.88
2019-02-27T17:06:04.207Z,13.78
2019-02-27T17:08:32.998Z,13.75
2019-02-27T17:10:59.762Z,13.71
2019-02-27T17:13:26.453Z,13.67
2019-02-27T17:15:52.613Z,13.56
2019-02-27T17:18:18.830Z,13.38
2019-02-27T17:20:46.565Z,13.31
2019-02-27T17:23:12.966Z,13.32
2019-02-27T17:25:39.070Z,13.19
2019-02-27T17:28:05.125Z,13.19
2019-02-27T17:30:37.716Z,13.03
2019-02-27T17:33:05.407Z,13.08
2019-02-27T17:35:31.547Z,13.24
2019-02-27T17:37:58.351Z,13.00
2019-02-27T17:40:24.724Z,12.99
2019-02-27T17:42:54.527Z,12.99
2019-02-27T17:45:25.113Z,12.92
2019-02-27T17:47:51.427Z,12.84
2019-02-27T17:50:18.270Z,12.71
2019-02-27T17:52:48.718Z,12.46
2019-02-27T17:55:17.018Z,12.42
2019-02-27T17:57:43.692Z,12.21
2019-02-27T18:00:20.275Z,12.32
2019-02-27T18:02:48.924Z,12.19
2019-02-27T18:05:15.154Z,12.17
2019-02-27T18:07:42.749Z,11.81
2019-02-27T18:10:10.762Z,11.72
2019-02-27T18:12:36.902Z,11.60
2019-02-27T18:15:06.988Z,11.56
2019-02-27T18:17:34.852Z,11.55
2019-02-27T18:20:03.047Z,11.46
2019-02-27T18:22:29.710Z,11.47
2019-02-27T18:24:55.900Z,11.33
2019-02-27T18:27:24.707Z,11.28
2019-02-27T18:29:50.055Z,11.22
2019-02-27T18:32:16.250Z,11.15
2019-02-27T18:34:42.524Z,10.96
2019-02-27T18:37:08.740Z,10.77
2019-02-27T18:39:36.532Z,10.75
2019-02-27T18:42:03.180Z,10.58
2019-02-27T18:44:29.504Z,10.41
2019-02-27T18:46:56.221Z,10.37
2019-02-27T18:49:23.760Z,10.43
2019-02-27T18:51:51.470Z,10.35
2019-02-27T18:54:21.788Z,10.25
2019-02-27T18:56:45.643Z,10.27
2019-02-27T18:59:11.976Z,10.13
2019-02-27T19:01:41.351Z,10.12
2019-02-27T19:04:06.631Z,10.01
2019-02-27T19:06:33.572Z,9.92
2019-02-27T19:09:00.733Z,9.97
2019-02-27T19:11:26.899Z,9.80
2019-02-27T19:13:53.063Z,9.93
2019-02-27T19:16:20.718Z,9.86
2019-02-27T19:18:47.143Z,9.90
2019-02-27T19:21:13.362Z,10.00
2019-02-27T19:23:42.871Z,10.04
2019-02-27T19:26:09.422Z,10.07
2019-02-27T19:28:36.340Z,10.26
2019-02-27T19:31:02.752Z,10.36
2019-02-27T19:33:32.508Z,10.37
2019-02-27T19:35:58.961Z,10.55
2019-02-27T19:38:25.144Z,10.69
2019-02-27T19:40:53.130Z,10.79
2019-02-27T19:43:20.987Z,10.78
2019-02-27T19:45:48.377Z,10.77
2019-02-27T19:48:14.537Z,10.80
2019-02-27T19:50:45.334Z,10.92
2019-02-27T19:53:08.870Z,10.97
2019-02-27T19:55:34.960Z,10.92
2019-02-27T19:58:01.087Z,11.01
2019-02-27T20:00:34.938Z,10.96
2019-02-27T20:03:01.503Z,11.01
2019-02-27T20:05:29.021Z,11.11
2019-02-27T20:07:55.372Z,11.07
2019-02-27T20:10:21.513Z,11.14
2019-02-27T20:12:52.766Z,11.15
2019-02-27T20:15:20.616Z,11.09
2019-02-27T20:17:46.989Z,11.08
2019-02-27T20:20:14.501Z,11.15
2019-02-27T20:22:41.299Z,11.26
2019-02-27T20:25:10.277Z,11.26
2019-02-27T20:27:36.579Z,11.25
2019-02-27T20:30:06.028Z,11.19
2019-02-27T20:32:32.119Z,11.09
2019-02-27T20:34:59.793Z,11.07
2019-02-27T20:37:26.018Z,10.98
2019-02-27T20:39:52.057Z,11.04
2019-02-27T20:42:38.045Z,11.14
2019-02-27T20:45:10.495Z,11.10
2019-02-27T20:47:36.647Z,10.99
2019-02-27T20:50:06.355Z,11.16
2019-02-27T20:52:32.479Z,11.04
2019-02-27T20:54:59.886Z,11.11
2019-02-27T20:57:27.565Z,11.10
2019-02-27T21:00:00.750Z,11.13
2019-02-27T21:02:23.863Z,11.10
2019-02-27T21:04:49.914Z,11.08
2019-02-27T21:07:22.198Z,11.00
2019-02-27T21:09:45.146Z,11.09
2019-02-27T21:12:11.994Z,11.14
2019-02-27T21:14:38.216Z,11.11
2019-02-27T21:17:04.556Z,11.15
2019-02-27T21:19:30.706Z,11.11
2019-02-27T21:21:56.855Z,11.00
2019-02-27T21:24:22.883Z,11.10
2019-02-27T21:26:48.916Z,11.03
2019-02-27T21:29:15.134Z,11.09
2019-02-27T21:31:41.233Z,11.12
2019-02-27T21:34:07.314Z,11.02
2019-02-27T21:36:36.493Z,11.13
2019-02-27T21:39:02.757Z,11.24
2019-02-27T21:41:28.877Z,11.20
2019-02-27T21:43:56.654Z,11.09
2019-02-27T21:46:22.950Z,11.11
2019-02-27T21:48:49.074Z,11.10
2019-02-27T21:51:15.201Z,11.14
2019-02-27T21:53:41.305Z,11.17
2019-02-27T21:56:07.363Z,11.05
2019-02-27T21:58:33.398Z,11.01
2019-02-27T22:00:59.914Z,11.01
2019-02-27T22:03:25.935Z,10.96
2019-02-27T22:05:52.994Z,10.97
2019-02-27T22:08:19.913Z,11.07
2019-02-27T22:10:45.952Z,10.95
2019-02-27T22:13:11.995Z,10.94
2019-02-27T22:15:38.066Z,10.94
2019-02-27T22:18:04.116Z,10.93
2019-02-27T22:20:30.164Z,10.99
2019-02-27T22:22:56.428Z,10.93
2019-02-27T22:25:22.646Z,11.00
2019-02-27T22:27:48.950Z,11.00
2019-02-27T22:30:16.843Z,10.97
2019-02-27T22:32:47.747Z,11.12
2019-02-27T22:35:11.216Z,10.99
2019-02-27T22:37:37.220Z,11.03
2019-02-27T22:40:07.494Z,10.98
2019-02-27T22:42:33.681Z,11.00
2019-02-27T22:45:00.671Z,10.90
2019-02-27T22:47:27.755Z,10.93
2019-02-27T22:49:54.204Z,10.84
2019-02-27T22:52:20.893Z,10.80
2019-02-27T22:54:47.146Z,10.82
2019-02-27T22:57:13.326Z,10.82
2019-02-27T22:59:39.479Z,10.72
2019-02-27T23:02:05.842Z,10.75
2019-02-27T23:04:32.802Z,10.67
2019-02-27T23:06:59.308Z,10.79
2019-02-27T23:09:25.899Z,10.68
2019-02-27T23:11:54.688Z,10.68
2019-02-27T23:14:20.979Z,10.60
2019-02-27T23:16:47.045Z,10.52
2019-02-27T23:19:13.202Z,10.51
2019-02-27T23:21:39.602Z,10.38
2019-02-27T23:24:07.108Z,10.33
2019-02-27T23:26:33.675Z,10.39
2019-02-27T23:28:59.816Z,10.35
2019-02-27T23:31:27.493Z,10.26
2019-02-27T23:33:53.632Z,10.29
2019-02-27T23:36:22.120Z,10.18
2019-02-27T23:38:47.990Z,10.19
2019-02-27T23:41:14.143Z,10.12
2019-02-27T23:43:40.304Z,10.12
2019-02-27T23:46:06.456Z,10.18
2019-02-27T23:48:35.894Z,10.15
2019-02-27T23:51:00.599Z,10.06
2019-02-27T23:53:27.866Z,10.05
2019-02-27T23:55:54.045Z,10.00
2019-02-27T23:58:20.438Z,9.93
